Time;durP1;ratioP1;P1;durP2;ratioP2;P2;SDS_P1;SDS_P2;PMS_P1;PMS_P2;Temp;Humidity;BMP_temperature;BMP_pressure;BME280_temperature;BME280_humidity;BME280_pressure;Samples;Min_cycle;Max_cycle;Signal;HPM_P1;HPM_P2
2022/04/19 00:00:28;;;;;;;3.17;1.77;;;9.10;99.40;;;;;;5088194;28;20072;-74
2022/04/19 00:02:53;;;;;;;2.55;1.70;;;9.10;96.80;;;;;;5073160;28;20044;-74
2022/04/19 00:05:19;;;;;;;3.20;2.15;;;9.20;97.60;;;;;;5089584;28;20091;-75
2022/04/19 00:07:45;;;;;;;2.90;2.00;;;9.20;95.90;;;;;;5073010;28;20086;-75
2022/04/19 00:10:12;;;;;;;3.78;2.60;;;9.30;96.10;;;;;;5073311;28;20071;-75
2022/04/19 00:12:38;;;;;;;3.85;2.42;;;9.40;97.70;;;;;;5089853;28;20036;-74
2022/04/19 00:15:05;;;;;;;5.70;3.00;;;9.40;95.50;;;;;;5089385;28;20548;-74
2022/04/19 00:17:31;;;;;;;4.80;3.03;;;9.50;95.00;;;;;;5091086;28;20475;-74
2022/04/19 00:19:57;;;;;;;4.55;3.10;;;9.50;96.10;;;;;;5088834;28;20079;-75
2022/04/19 00:22:23;;;;;;;5.05;3.40;;;9.60;97.00;;;;;;5088500;28;20467;-75
2022/04/19 00:24:49;;;;;;;5.57;3.15;;;9.60;96.20;;;;;;5052977;28;20351;-75
2022/04/19 00:27:14;;;;;;;3.83;2.50;;;9.60;95.00;;;;;;5081669;28;20048;-74
2022/04/19 00:29:41;;;;;;;4.30;2.83;;;9.60;96.30;;;;;;5101759;28;20161;-74
2022/04/19 00:32:11;;;;;;;4.28;2.90;;;9.60;95.40;;;;;;5108841;28;20092;-74
2022/04/19 00:34:38;;;;;;;4.30;2.63;;;9.50;95.50;;;;;;5076522;28;20082;-74
2022/04/19 00:37:05;;;;;;;3.78;2.42;;;9.50;95.90;;;;;;5082771;28;20059;-74
2022/04/19 00:39:32;;;;;;;5.10;2.63;;;9.40;95.80;;;;;;5091858;28;20035;-74
2022/04/19 00:41:57;;;;;;;4.03;2.47;;;9.30;96.00;;;;;;5091356;28;20046;-74
2022/04/19 00:44:24;;;;;;;3.42;2.50;;;9.30;95.50;;;;;;5101258;28;20044;-74
2022/04/19 00:46:50;;;;;;;5.65;3.60;;;9.20;95.60;;;;;;5089951;28;20375;-74
2022/04/19 00:49:18;;;;;;;4.72;3.30;;;9.30;96.00;;;;;;5072318;28;20129;-74
2022/04/19 00:51:44;;;;;;;4.95;3.00;;;9.30;96.90;;;;;;5101253;28;20483;-74
2022/04/19 00:54:13;;;;;;;4.00;3.00;;;9.30;96.70;;;;;;5105177;28;20108;-74
2022/04/19 00:56:40;;;;;;;5.70;2.92;;;9.30;96.90;;;;;;5093635;28;20048;-74
2022/04/19 00:59:09;;;;;;;4.18;2.67;;;9.20;96.90;;;;;;5088205;28;20040;-74
2022/04/19 01:01:37;;;;;;;5.20;2.95;;;9.30;97.90;;;;;;5075462;28;20043;-74
2022/04/19 01:04:03;;;;;;;5.25;3.35;;;9.20;96.90;;;;;;5099804;28;20136;-74
2022/04/19 01:06:29;;;;;;;5.72;3.50;;;9.20;97.10;;;;;;5073164;28;20423;-75
2022/04/19 01:08:55;;;;;;;;;;;9.20;96.50;;;;;;5087072;28;20048;-74
2022/04/19 01:14:05;;;;;;;5.68;3.75;;;9.20;97.10;;;;;;5102200;28;20081;-74
2022/04/19 01:16:31;;;;;;;5.28;3.30;;;9.10;96.30;;;;;;5109268;28;20039;-74
2022/04/19 01:18:57;;;;;;;4.80;3.00;;;9.10;97.70;;;;;;5101948;28;20088;-74
2022/04/19 01:21:26;;;;;;;3.50;2.22;;;9.00;98.80;;;;;;5087704;28;20051;-74
2022/04/19 01:23:52;;;;;;;3.55;2.20;;;8.80;99.70;;;;;;5090195;28;20043;-73
2022/04/19 01:26:18;;;;;;;3.42;2.08;;;8.70;99.90;;;;;;5093964;28;20048;-74
2022/04/19 01:28:45;;;;;;;3.15;2.30;;;8.50;99.90;;;;;;5094271;28;20050;-73
2022/04/19 01:31:11;;;;;;;3.30;1.98;;;8.30;99.90;;;;;;5077398;28;20039;-74
2022/04/19 01:33:37;;;;;;;2.92;2.00;;;8.20;99.90;;;;;;5071371;28;20044;-73
2022/04/19 01:36:03;;;;;;;3.08;1.90;;;8.20;99.90;;;;;;5100175;28;20060;-74
2022/04/19 01:38:29;;;;;;;3.55;2.17;;;8.10;99.90;;;;;;5099603;28;20051;-77
2022/04/19 01:40:54;;;;;;;4.70;2.95;;;8.10;99.90;;;;;;5090212;28;20043;-75
2022/04/19 01:43:20;;;;;;;4.60;2.97;;;8.10;99.90;;;;;;5092269;28;20129;-74
2022/04/19 01:45:46;;;;;;;4.47;2.88;;;8.20;99.90;;;;;;5072428;28;20142;-74
2022/04/19 01:48:11;;;;;;;5.15;2.80;;;8.30;99.90;;;;;;5112519;28;20051;-74
2022/04/19 01:50:39;;;;;;;4.70;3.15;;;8.30;99.90;;;;;;5090341;28;20040;-74
2022/04/19 01:53:05;;;;;;;6.75;3.47;;;8.30;99.90;;;;;;5101219;28;20035;-73
2022/04/19 01:55:30;;;;;;;4.38;2.75;;;8.40;99.90;;;;;;5094026;28;20092;-74
2022/04/19 01:57:58;;;;;;;5.45;2.72;;;8.30;99.90;;;;;;5074773;28;20115;-74
2022/04/19 02:00:31;;;;;;;4.53;2.50;;;8.30;99.90;;;;;;5091384;28;20056;-73
2022/04/19 02:02:57;;;;;;;4.47;2.22;;;8.20;99.90;;;;;;5084604;28;20100;-74
2022/04/19 02:05:23;;;;;;;5.47;3.33;;;8.10;99.90;;;;;;5101238;28;20088;-73
2022/04/19 02:07:49;;;;;;;;;;;8.10;99.30;;;;;;5093268;28;20043;-73
2022/04/19 02:10:17;;;;;;;5.95;3.83;;;8.10;99.90;;;;;;5109252;28;19922;-73
2022/04/19 02:12:43;;;;;;;6.00;4.00;;;8.20;99.90;;;;;;5102030;28;20044;-74
2022/04/19 02:15:09;;;;;;;6.05;3.50;;;8.20;99.90;;;;;;5092992;28;20048;-73
2022/04/19 02:17:46;;;;;;;4.53;2.90;;;8.20;99.90;;;;;;5076022;28;20044;-74
2022/04/19 02:20:13;;;;;;;;;;;8.10;99.90;;;;;;5092426;28;20040;-74
2022/04/19 02:22:39;;;;;;;3.53;2.27;;;7.90;99.90;;;;;;5098284;28;19923;-74
2022/04/19 02:25:06;;;;;;;3.22;2.28;;;7.80;99.90;;;;;;5106678;28;20103;-75
2022/04/19 02:27:33;;;;;;;3.75;2.33;;;7.60;99.90;;;;;;5080868;28;20399;-75
2022/04/19 02:30:04;;;;;;;2.78;1.80;;;7.50;99.90;;;;;;5108174;28;20669;-74
2022/04/19 02:32:31;;;;;;;2.65;1.85;;;7.40;99.90;;;;;;5099572;28;20155;-74
2022/04/19 02:34:59;;;;;;;3.75;2.67;;;7.30;99.90;;;;;;5105016;28;20051;-74
2022/04/19 02:37:25;;;;;;;5.45;3.42;;;7.20;99.90;;;;;;5088265;28;20123;-74
2022/04/19 02:39:51;;;;;;;4.38;3.00;;;7.20;99.90;;;;;;5096149;28;20187;-74
2022/04/19 02:42:17;;;;;;;4.88;2.90;;;7.20;99.90;;;;;;5112612;28;20423;-74
2022/04/19 02:44:43;;;;;;;3.88;2.92;;;7.20;99.90;;;;;;5095519;28;20040;-73
2022/04/19 02:47:09;;;;;;;4.95;3.40;;;7.20;99.90;;;;;;5105993;28;20040;-74
2022/04/19 02:49:36;;;;;;;6.45;4.05;;;7.30;99.90;;;;;;5108245;28;20063;-74
2022/04/19 02:52:03;;;;;;;6.07;3.92;;;7.50;99.90;;;;;;5089774;28;20048;-74
2022/04/19 02:54:29;;;;;;;4.80;3.00;;;7.70;99.90;;;;;;5071284;28;20048;-74
2022/04/19 02:56:54;;;;;;;4.72;3.15;;;7.70;99.90;;;;;;5074415;28;20044;-74
2022/04/19 02:59:20;;;;;;;5.28;3.33;;;7.80;99.90;;;;;;5091368;28;20044;-74
2022/04/19 03:01:46;;;;;;;5.32;3.35;;;7.80;99.90;;;;;;5097345;28;20128;-74
2022/04/19 03:04:11;;;;;;;6.43;3.88;;;7.90;99.90;;;;;;5085086;28;20581;-74
2022/04/19 03:06:37;;;;;;;5.90;3.87;;;7.90;99.90;;;;;;5084298;28;20391;-74
2022/04/19 03:09:03;;;;;;;6.05;3.75;;;7.90;99.90;;;;;;5075899;28;20378;-74
2022/04/19 03:11:28;;;;;;;5.35;3.55;;;8.00;99.90;;;;;;5108981;28;20043;-74
2022/04/19 03:13:55;;;;;;;6.32;4.13;;;7.90;99.90;;;;;;5107340;28;20152;-74
2022/04/19 03:16:21;;;;;;;5.38;3.38;;;7.90;99.90;;;;;;5082478;28;20128;-74
2022/04/19 03:18:47;;;;;;;5.68;3.85;;;7.90;99.90;;;;;;5084729;28;20039;-74
2022/04/19 03:21:13;;;;;;;5.80;4.05;;;7.90;99.90;;;;;;5097241;28;20051;-74
2022/04/19 03:29:10;;;;;;;5.60;3.42;;;7.80;99.90;;;;;;5101835;28;20122;-75
2022/04/19 03:31:36;;;;;;;;;;;7.80;99.90;;;;;;5107708;28;20131;-75
2022/04/19 03:34:03;;;;;;;4.90;3.42;;;7.80;99.90;;;;;;5087007;28;20010;-75
2022/04/19 03:36:29;;;;;;;4.68;3.10;;;7.70;99.90;;;;;;5100492;28;20047;-75
2022/04/19 03:38:55;;;;;;;4.18;3.10;;;7.60;99.90;;;;;;5109059;28;20047;-75
2022/04/19 03:41:21;;;;;;;5.18;3.60;;;7.60;99.90;;;;;;5096362;28;20032;-74
2022/04/19 03:43:47;;;;;;;4.78;3.45;;;7.60;99.90;;;;;;5076425;28;20027;-73
2022/04/19 03:46:13;;;;;;;5.75;4.03;;;7.50;99.90;;;;;;5109238;28;20081;-73
2022/04/19 03:48:38;;;;;;;4.57;3.10;;;7.50;99.90;;;;;;5090232;28;20055;-74
2022/04/19 03:51:04;;;;;;;5.50;3.67;;;7.50;99.90;;;;;;5096032;28;20071;-74
2022/04/19 03:53:31;;;;;;;5.05;3.42;;;7.50;99.90;;;;;;5100472;28;20039;-74
2022/04/19 03:55:58;;;;;;;5.53;3.75;;;7.50;99.90;;;;;;5088056;28;20085;-73
2022/04/19 03:58:26;;;;;;;4.40;3.17;;;7.50;99.90;;;;;;5090763;28;20093;-74
2022/04/19 04:00:53;;;;;;;3.60;2.50;;;7.40;99.90;;;;;;5097767;28;20119;-74
2022/04/19 04:03:19;;;;;;;4.30;3.00;;;7.40;99.90;;;;;;5105282;28;20461;-74
2022/04/19 04:05:45;;;;;;;4.90;3.10;;;7.30;99.90;;;;;;5072861;28;20070;-74
2022/04/19 04:08:10;;;;;;;4.63;2.88;;;7.30;99.90;;;;;;5107460;28;20396;-74
2022/04/19 04:10:36;;;;;;;5.00;2.80;;;7.30;99.90;;;;;;5085660;28;20066;-74
2022/04/19 04:13:04;;;;;;;3.85;2.60;;;7.30;99.90;;;;;;5106428;28;20441;-74
2022/04/19 04:15:30;;;;;;;3.63;2.35;;;7.30;99.90;;;;;;5086419;28;20071;-74
2022/04/19 04:17:56;;;;;;;5.03;2.90;;;7.20;99.90;;;;;;5108541;28;20036;-74
2022/04/19 04:20:21;;;;;;;3.35;2.20;;;7.20;99.90;;;;;;5098360;28;20405;-74
2022/04/19 04:22:47;;;;;;;5.10;3.03;;;7.20;99.90;;;;;;5102240;28;20096;-74
2022/04/19 04:25:13;;;;;;;5.03;3.55;;;7.20;99.90;;;;;;5084100;28;20044;-74
2022/04/19 04:27:38;;;;;;;5.57;3.50;;;7.10;99.90;;;;;;5092656;28;20454;-74
2022/04/19 04:30:06;;;;;;;4.32;2.97;;;7.20;99.90;;;;;;5102989;28;20036;-73
2022/04/19 04:32:32;;;;;;;4.75;2.75;;;7.10;99.90;;;;;;5080613;28;20036;-75
2022/04/19 04:34:58;;;;;;;2.58;1.80;;;7.10;99.90;;;;;;5083819;28;20054;-74
2022/04/19 04:37:24;;;;;;;2.25;1.85;;;7.00;99.90;;;;;;5107705;28;20059;-74
2022/04/19 04:39:49;;;;;;;2.90;1.90;;;7.00;99.90;;;;;;5090896;28;20039;-74
2022/04/19 04:42:15;;;;;;;2.80;1.83;;;7.00;99.90;;;;;;5075144;28;20063;-74
2022/04/19 04:44:41;;;;;;;3.53;2.20;;;7.00;99.90;;;;;;5090116;28;20210;-74
2022/04/19 04:49:52;;;;;;;5.68;3.53;;;7.00;99.90;;;;;;5089453;28;20394;-74
2022/04/19 04:52:18;;;;;;;6.47;4.18;;;7.00;99.90;;;;;;5094469;28;20067;-75
2022/04/19 04:54:44;;;;;;;6.95;4.40;;;7.10;99.90;;;;;;5087635;28;20123;-75
2022/04/19 04:57:10;;;;;;;8.45;4.82;;;7.20;99.90;;;;;;5071319;28;20548;-75
2022/04/19 04:59:36;;;;;;;7.70;4.50;;;7.20;99.90;;;;;;5086368;28;20047;-74
2022/04/19 05:02:06;;;;;;;8.32;4.95;;;7.30;99.90;;;;;;5102442;28;20069;-75
2022/04/19 05:04:32;;;;;;;6.10;3.97;;;7.30;99.90;;;;;;5092978;28;20166;-75
2022/04/19 05:06:58;;;;;;;;;;;7.40;99.90;;;;;;5096516;28;20105;-75
2022/04/19 05:09:24;;;;;;;5.25;3.80;;;7.40;99.90;;;;;;5093017;28;19932;-74
2022/04/19 05:11:53;;;;;;;5.07;3.40;;;7.40;99.90;;;;;;5092042;28;20125;-73
2022/04/19 05:14:19;;;;;;;4.95;3.35;;;7.50;99.90;;;;;;5069717;28;20305;-74
2022/04/19 05:16:45;;;;;;;;;;;7.40;99.90;;;;;;5103341;28;20046;-74
2022/04/19 05:19:11;;;;;;;7.05;3.85;;;7.50;99.90;;;;;;5102980;28;20011;-74
2022/04/19 05:21:37;;;;;;;5.13;3.35;;;7.50;99.90;;;;;;5082683;28;20540;-75
2022/04/19 05:24:08;;;;;;;5.93;3.63;;;7.50;99.90;;;;;;5092014;28;20039;-75
2022/04/19 05:26:34;;;;;;;6.47;3.55;;;7.60;99.90;;;;;;5079697;28;20047;-75
2022/04/19 05:29:00;;;;;;;7.15;4.05;;;7.60;99.90;;;;;;5086771;28;20044;-74
2022/04/19 05:31:26;;;;;;;5.75;3.70;;;7.60;99.90;;;;;;5069404;28;20055;-75
2022/04/19 05:33:52;;;;;;;6.00;3.38;;;7.70;99.90;;;;;;5083526;28;20040;-75
2022/04/19 05:36:18;;;;;;;7.45;3.38;;;7.70;99.90;;;;;;5052462;28;20159;-76
2022/04/19 05:38:43;;;;;;;6.85;4.07;;;7.80;99.90;;;;;;5054826;28;20203;-75
2022/04/19 05:41:10;;;;;;;7.97;4.47;;;7.90;99.90;;;;;;5086923;28;20051;-75
2022/04/19 05:43:36;;;;;;;8.38;5.35;;;8.10;99.90;;;;;;5081467;28;20119;-75
2022/04/19 05:46:02;;;;;;;8.25;4.97;;;8.30;99.90;;;;;;5070443;28;20089;-75
2022/04/19 05:48:28;;;;;;;7.25;4.72;;;8.50;99.90;;;;;;5085173;28;20097;-75
2022/04/19 05:50:54;;;;;;;8.73;4.90;;;8.70;99.90;;;;;;5071016;28;20047;-75
2022/04/19 05:53:19;;;;;;;8.45;5.32;;;8.70;99.90;;;;;;5065357;28;20047;-75
2022/04/19 05:55:45;;;;;;;8.10;4.57;;;8.70;99.90;;;;;;5081916;28;20104;-74
2022/04/19 05:58:11;;;;;;;7.57;4.63;;;8.70;99.90;;;;;;5112124;28;20039;-74
2022/04/19 06:00:37;;;;;;;10.75;5.25;;;8.70;99.90;;;;;;5096692;28;20032;-74
2022/04/19 06:05:47;;;;;;;8.07;4.60;;;9.10;99.90;;;;;;5082393;28;20117;-72
2022/04/19 06:08:14;;;;;;;7.93;5.07;;;9.70;99.90;;;;;;5091838;28;20048;-72
2022/04/19 06:10:40;;;;;;;9.82;5.53;;;10.30;99.90;;;;;;5092188;28;20055;-72
2022/04/19 06:13:07;;;;;;;12.20;6.13;;;10.80;99.90;;;;;;5075295;28;20087;-73
2022/04/19 06:15:32;;;;;;;;;;;11.10;99.90;;;;;;5092428;28;20051;-73
2022/04/19 06:17:59;;;;;;;8.88;5.68;;;11.30;99.90;;;;;;5092100;28;20286;-73
2022/04/19 06:20:25;;;;;;;9.32;5.78;;;11.40;99.90;;;;;;5092082;28;20451;-73
2022/04/19 06:22:51;;;;;;;8.98;5.78;;;11.50;99.90;;;;;;5091803;28;20028;-73
2022/04/19 06:25:17;;;;;;;6.80;4.90;;;11.70;99.90;;;;;;5091159;28;20043;-73
2022/04/19 06:27:43;;;;;;;6.68;4.85;;;11.70;99.90;;;;;;5074921;28;20048;-74
2022/04/19 06:30:09;;;;;;;7.95;4.95;;;11.90;99.90;;;;;;5087943;28;20495;-71
2022/04/19 06:32:35;;;;;;;11.13;5.13;;;11.90;99.90;;;;;;5088855;28;20551;-72
2022/04/19 06:35:01;;;;;;;7.93;5.13;;;12.10;99.90;;;;;;5078294;28;20108;-72
2022/04/19 06:37:26;;;;;;;6.40;4.47;;;12.20;99.90;;;;;;5074426;28;20123;-72
2022/04/19 06:39:52;;;;;;;7.03;4.38;;;12.40;99.90;;;;;;5089708;28;20048;-72
2022/04/19 06:42:19;;;;;;;9.18;5.65;;;12.60;99.60;;;;;;5087312;28;20039;-72
2022/04/19 06:44:44;;;;;;;;;;;12.60;98.90;;;;;;5092373;28;20051;-72
2022/04/19 06:47:10;;;;;;;8.80;5.38;;;12.60;98.10;;;;;;5109795;28;20354;-71
2022/04/19 06:49:37;;;;;;;7.90;5.20;;;12.60;98.30;;;;;;5097119;28;20049;-72
2022/04/19 06:52:06;;;;;;;10.20;5.68;;;12.60;98.40;;;;;;5095026;28;20045;-73
2022/04/19 06:54:32;;;;;;;7.82;4.78;;;12.80;98.00;;;;;;5088848;28;20101;-73
2022/04/19 06:56:58;;;;;;;;;;;12.90;97.90;;;;;;5094581;28;20171;-73
2022/04/19 06:59:25;;;;;;;6.55;4.15;;;13.20;97.50;;;;;;5077009;28;19995;-73
2022/04/19 07:01:51;;;;;;;6.65;4.50;;;13.40;96.60;;;;;;5079265;28;20377;-73
2022/04/19 07:04:17;;;;;;;6.25;4.00;;;13.70;96.40;;;;;;5073437;28;20123;-73
2022/04/19 07:06:42;;;;;;;9.30;4.35;;;13.90;95.80;;;;;;5087332;28;20083;-73
2022/04/19 07:09:08;;;;;;;5.32;2.97;;;14.10;95.80;;;;;;5088761;28;20131;-73
2022/04/19 07:11:36;;;;;;;6.43;3.35;;;14.40;95.00;;;;;;5096371;28;20592;-73
2022/04/19 07:14:03;;;;;;;7.20;3.65;;;14.70;94.90;;;;;;5105770;28;20146;-73
2022/04/19 07:16:29;;;;;;;5.88;3.63;;;14.70;93.90;;;;;;5088493;28;20041;-73
2022/04/19 07:18:54;;;;;;;5.95;3.80;;;14.70;93.70;;;;;;5091863;28;20078;-74
2022/04/19 07:26:50;;;;;;;8.23;4.15;;;14.80;93.70;;;;;;5068537;28;20296;-77
2022/04/19 07:29:18;;;;;;;5.15;3.63;;;14.50;93.40;;;;;;5044355;28;20063;-78
2022/04/19 07:31:50;;;;;;;6.72;4.47;;;14.70;94.30;;;;;;5085376;28;20059;-78
2022/04/19 07:34:16;;;;;;;5.78;3.65;;;14.60;93.50;;;;;;5087149;28;20044;-77
2022/04/19 07:36:42;;;;;;;4.55;3.05;;;14.70;94.20;;;;;;5065796;28;20139;-78
2022/04/19 07:39:09;;;;;;;4.78;3.33;;;14.80;94.40;;;;;;5068009;28;20167;-78
2022/04/19 07:41:35;;;;;;;5.82;3.50;;;15.00;94.00;;;;;;5089549;28;20039;-78
2022/04/19 07:44:08;;;;;;;4.85;3.33;;;15.10;93.30;;;;;;5088511;28;20073;-78
2022/04/19 07:46:37;;;;;;;5.65;3.67;;;15.40;93.00;;;;;;5087788;28;20044;-78
2022/04/19 07:49:04;;;;;;;6.78;3.97;;;15.40;93.10;;;;;;5089049;28;20054;-78
2022/04/19 07:51:30;;;;;;;5.65;3.72;;;15.30;92.50;;;;;;5088924;28;20494;-78
2022/04/19 07:53:55;;;;;;;5.35;3.67;;;15.40;93.10;;;;;;5082600;28;20486;-78
2022/04/19 07:56:22;;;;;;;5.78;3.80;;;15.20;92.70;;;;;;5087314;28;20036;-77
2022/04/19 07:58:48;;;;;;;9.25;3.88;;;15.20;92.50;;;;;;5090005;28;20095;-78
2022/04/19 08:01:14;;;;;;;4.38;3.33;;;15.10;92.60;;;;;;5071910;28;20039;-77
2022/04/19 08:03:40;;;;;;;5.03;3.42;;;15.20;92.50;;;;;;5065783;28;20067;-78
2022/04/19 08:06:06;;;;;;;3.95;2.97;;;15.20;92.50;;;;;;5087365;28;20059;-76
2022/04/19 08:08:32;;;;;;;4.05;2.70;;;15.20;91.80;;;;;;5084340;28;20040;-77
2022/04/19 08:10:58;;;;;;;3.30;2.30;;;15.40;92.10;;;;;;5095479;28;20044;-77
2022/04/19 08:13:24;;;;;;;6.00;3.28;;;15.60;91.50;;;;;;5089239;28;20054;-77
2022/04/19 08:15:50;;;;;;;;;;;15.50;90.90;;;;;;5088279;28;20051;-77
2022/04/19 08:18:18;;;;;;;3.20;2.17;;;15.50;90.30;;;;;;5088581;28;19916;-78
2022/04/19 08:20:45;;;;;;;4.82;2.85;;;15.60;90.30;;;;;;5072102;28;20040;-77
2022/04/19 08:23:12;;;;;;;3.97;2.50;;;15.60;89.90;;;;;;5088634;28;20040;-77
2022/04/19 08:25:39;;;;;;;3.35;2.30;;;15.50;88.20;;;;;;5087434;28;20028;-77
2022/04/19 08:28:06;;;;;;;2.60;2.17;;;15.70;89.60;;;;;;5083792;28;20123;-77
2022/04/19 08:30:32;;;;;;;3.03;2.17;;;15.60;86.30;;;;;;5086754;28;20040;-77
2022/04/19 08:32:58;;;;;;;3.42;2.22;;;15.70;85.60;;;;;;5086916;28;20036;-77
2022/04/19 08:35:24;;;;;;;7.63;2.58;;;15.80;85.80;;;;;;5086968;28;20032;-77
2022/04/19 08:37:50;;;;;;;4.05;2.20;;;15.80;82.80;;;;;;5069752;28;20487;-77
2022/04/19 08:40:16;;;;;;;;;;;15.90;82.40;;;;;;5084087;28;20051;-77
2022/04/19 08:42:43;;;;;;;3.83;1.77;;;16.00;81.40;;;;;;5069710;28;19916;-77
2022/04/19 08:45:12;;;;;;;3.65;1.95;;;16.20;79.50;;;;;;5087495;28;20796;-77
2022/04/19 08:47:40;;;;;;;2.80;1.52;;;16.30;77.70;;;;;;5070285;28;20119;-77
2022/04/19 08:50:12;;;;;;;3.08;1.60;;;16.40;76.90;;;;;;5083801;28;20039;-77
2022/04/19 08:52:39;;;;;;;1.85;1.55;;;16.50;76.30;;;;;;5063825;28;20109;-78
2022/04/19 08:57:53;;;;;;;3.25;1.48;;;16.50;73.60;;;;;;5069003;28;20131;-77
2022/04/19 09:00:22;;;;;;;1.92;1.10;;;16.50;74.10;;;;;;5078561;28;20040;-77
2022/04/19 09:02:51;;;;;;;1.90;1.17;;;16.70;73.50;;;;;;5076235;28;20036;-77
2022/04/19 09:05:23;;;;;;;2.40;1.20;;;16.70;71.00;;;;;;5084524;28;20044;-77
2022/04/19 09:07:53;;;;;;;2.20;0.98;;;16.70;70.10;;;;;;5090809;28;20113;-78
2022/04/19 09:10:31;;;;;;;4.10;1.08;;;16.70;70.50;;;;;;5084533;28;20400;-78
2022/04/19 09:13:07;;;;;;;2.00;1.13;;;16.80;70.70;;;;;;5088901;28;20047;-77
2022/04/19 09:15:33;;;;;;;2.47;1.20;;;16.90;69.50;;;;;;5070321;28;20309;-77
2022/04/19 09:18:00;;;;;;;3.53;1.42;;;16.90;70.80;;;;;;5069674;28;20054;-78
2022/04/19 09:20:26;;;;;;;2.60;1.10;;;17.10;70.70;;;;;;5087140;28;20047;-78
2022/04/19 09:23:07;;;;;;;3.00;1.13;;;17.30;71.10;;;;;;5086653;28;20120;-78
2022/04/19 09:25:34;;;;;;;5.38;1.40;;;17.50;71.20;;;;;;5087469;28;20046;-78
2022/04/19 09:28:02;;;;;;;2.17;1.20;;;17.30;69.00;;;;;;5088424;28;20058;-78
2022/04/19 09:30:28;;;;;;;1.63;1.00;;;17.20;69.70;;;;;;5091992;28;20058;-77
2022/04/19 09:33:17;;;;;;;2.13;1.20;;;17.20;69.90;;;;;;5055736;28;20454;-78
2022/04/19 09:35:59;;;;;;;2.17;1.40;;;17.20;69.20;;;;;;5057464;28;20142;-78
2022/04/19 09:38:42;;;;;;;2.40;1.60;;;17.20;68.40;;;;;;5092023;28;20414;-78
2022/04/19 09:41:29;;;;;;;4.15;1.80;;;17.30;68.30;;;;;;5075365;28;20047;-78
2022/04/19 09:44:05;;;;;;;3.08;1.75;;;17.10;68.90;;;;;;5088146;28;20403;-77
2022/04/19 09:46:30;;;;;;;2.38;1.50;;;17.20;68.90;;;;;;5091141;28;20047;-77
2022/04/19 09:48:56;;;;;;;2.25;1.40;;;17.20;69.30;;;;;;5075442;28;20048;-78
2022/04/19 09:51:30;;;;;;;2.55;1.63;;;17.30;69.80;;;;;;5091308;28;20047;-78
2022/04/19 09:53:56;;;;;;;1.83;1.63;;;17.30;69.70;;;;;;5090394;28;20043;-77
2022/04/19 09:56:22;;;;;;;2.20;1.20;;;17.30;68.80;;;;;;5074768;28;20466;-79
2022/04/19 09:58:49;;;;;;;3.95;1.40;;;17.50;69.10;;;;;;5091777;28;20036;-77
2022/04/19 10:09:33;;;;;;;5.57;1.40;;;17.70;68.90;;;;;;5090185;28;20079;-78
2022/04/19 10:12:01;;;;;;;4.32;1.73;;;17.80;68.50;;;;;;5088204;28;20082;-76
2022/04/19 10:14:29;;;;;;;3.63;1.25;;;17.90;69.10;;;;;;5073213;28;20044;-77
2022/04/19 10:16:57;;;;;;;1.77;1.30;;;17.70;67.90;;;;;;5105125;28;20066;-76
2022/04/19 10:19:23;;;;;;;3.42;1.50;;;17.70;68.90;;;;;;5081917;28;20039;-77
2022/04/19 10:21:51;;;;;;;1.98;1.30;;;17.80;68.30;;;;;;5094518;28;20036;-76
2022/04/19 10:24:17;;;;;;;4.25;1.40;;;18.00;69.00;;;;;;5091801;28;20075;-78
2022/04/19 10:26:52;;;;;;;;;;;17.90;68.20;;;;;;5073824;28;20048;-77
2022/04/19 10:29:32;;;;;;;3.13;1.50;;;18.10;68.30;;;;;;5085585;28;19963;-76
2022/04/19 10:32:02;;;;;;;3.20;1.63;;;18.00;68.40;;;;;;5083157;28;20151;-77
2022/04/19 10:34:33;;;;;;;3.15;1.10;;;18.10;67.80;;;;;;5066852;28;20052;-76
2022/04/19 10:37:11;;;;;;;2.15;1.45;;;18.40;68.80;;;;;;5086427;28;20112;-77
2022/04/19 10:39:44;;;;;;;1.98;1.40;;;18.50;68.20;;;;;;5086620;28;20055;-78
2022/04/19 10:42:32;;;;;;;2.92;1.70;;;18.60;68.20;;;;;;5090056;28;20048;-77
2022/04/19 10:45:25;;;;;;;3.88;1.60;;;18.60;67.30;;;;;;5093154;28;20044;-77
2022/04/19 10:47:54;;;;;;;3.80;1.80;;;18.50;67.20;;;;;;5093640;28;20482;-77
2022/04/19 10:50:34;;;;;;;2.42;1.60;;;18.40;66.30;;;;;;5088456;28;20044;-77
2022/04/19 10:53:08;;;;;;;2.35;1.48;;;18.20;66.50;;;;;;5090042;28;20039;-77
2022/04/19 10:55:56;;;;;;;2.42;1.50;;;18.10;66.80;;;;;;5086660;28;20036;-76
2022/04/19 10:58:38;;;;;;;1.75;1.60;;;18.10;67.30;;;;;;5087985;28;20035;-76
2022/04/19 11:01:05;;;;;;;6.35;1.50;;;18.10;67.50;;;;;;5082761;28;20474;-76
2022/04/19 11:03:34;;;;;;;2.17;1.20;;;18.30;68.50;;;;;;5095494;28;20040;-76
2022/04/19 11:06:02;;;;;;;2.28;1.42;;;18.60;69.60;;;;;;5096261;28;20043;-76
2022/04/19 11:08:31;;;;;;;2.22;1.48;;;18.90;68.40;;;;;;5091782;28;20363;-76
2022/04/19 11:11:02;;;;;;;2.10;1.73;;;19.00;67.90;;;;;;5088432;28;20039;-76
2022/04/19 11:13:39;;;;;;;1.77;1.40;;;19.00;67.60;;;;;;5074446;28;20035;-76
2022/04/19 11:16:05;;;;;;;3.25;1.40;;;18.90;67.80;;;;;;5088561;28;20032;-76
2022/04/19 11:18:34;;;;;;;;;;;19.00;67.90;;;;;;5087980;28;20378;-76
2022/04/19 11:21:03;;;;;;;3.13;1.90;;;19.20;67.40;;;;;;5091619;28;19989;-75
2022/04/19 11:23:40;;;;;;;3.58;1.67;;;19.10;66.30;;;;;;5089000;28;20126;-76
2022/04/19 11:26:08;;;;;;;2.90;1.60;;;19.30;67.80;;;;;;5087307;28;20043;-76
2022/04/19 11:28:34;;;;;;;2.83;1.90;;;19.60;67.20;;;;;;5090616;28;20043;-76
2022/04/19 11:31:00;;;;;;;;;;;19.40;66.60;;;;;;5092487;28;20059;-75
2022/04/19 11:33:34;;;;;;;3.17;1.63;;;19.50;66.40;;;;;;5090561;28;19966;-76
2022/04/19 11:36:02;;;;;;;5.28;1.30;;;19.60;65.50;;;;;;5073473;28;20129;-75
2022/04/19 11:38:29;;;;;;;2.53;1.40;;;19.30;65.10;;;;;;5090822;28;20075;-76
2022/04/19 11:46:46;;;;;;;2.15;1.40;;;19.30;64.80;;;;;;5076473;28;20040;-74
2022/04/19 11:49:27;;;;;;;2.47;1.30;;;19.40;64.10;;;;;;5077894;28;20044;-74
2022/04/19 11:51:59;;;;;;;3.92;1.60;;;19.30;64.70;;;;;;5091134;28;20386;-74
2022/04/19 11:54:30;;;;;;;3.65;1.60;;;19.20;64.50;;;;;;5075058;28;20117;-75
2022/04/19 11:57:04;;;;;;;2.85;1.50;;;18.90;63.90;;;;;;5091807;28;20036;-75
2022/04/19 11:59:36;;;;;;;2.45;1.60;;;19.00;64.50;;;;;;5090363;28;20040;-75
2022/04/19 12:02:04;;;;;;;4.97;1.80;;;19.10;64.70;;;;;;5089910;28;20472;-75
2022/04/19 12:04:30;;;;;;;2.85;1.42;;;19.10;64.10;;;;;;5073128;28;20102;-75
2022/04/19 12:07:01;;;;;;;3.03;1.85;;;19.20;63.70;;;;;;5073693;28;20387;-75
2022/04/19 12:09:28;;;;;;;2.90;1.50;;;19.20;64.10;;;;;;5073228;28;20070;-74
2022/04/19 12:11:54;;;;;;;1.80;1.30;;;19.30;64.20;;;;;;5091315;28;20419;-74
2022/04/19 12:14:32;;;;;;;4.47;1.70;;;19.50;64.20;;;;;;5090838;28;20055;-75
2022/04/19 12:17:06;;;;;;;2.97;1.45;;;19.50;64.00;;;;;;5088582;28;20044;-75
2022/04/19 12:19:40;;;;;;;3.05;1.67;;;19.50;64.50;;;;;;5090262;28;20043;-77
2022/04/19 12:22:23;;;;;;;2.20;1.30;;;19.40;65.10;;;;;;5076330;28;20415;-74
2022/04/19 12:24:55;;;;;;;1.92;1.10;;;19.40;64.80;;;;;;5089897;28;20075;-74
2022/04/19 12:27:37;;;;;;;5.25;1.10;;;19.80;64.90;;;;;;5078699;28;20048;-74
2022/04/19 12:30:08;;;;;;;3.22;1.52;;;20.00;64.50;;;;;;5087892;28;20027;-73
2022/04/19 12:32:53;;;;;;;2.40;1.50;;;19.70;62.30;;;;;;5080069;28;20079;-74
2022/04/19 12:35:34;;;;;;;2.03;1.60;;;19.40;63.30;;;;;;5081799;28;20672;-74
2022/04/19 12:38:09;;;;;;;1.85;1.10;;;19.40;63.60;;;;;;5090242;28;20170;-74
2022/04/19 12:40:35;;;;;;;2.22;1.20;;;19.60;64.80;;;;;;5081255;28;20387;-79
2022/04/19 12:43:00;;;;;;;;;;;19.90;64.80;;;;;;5065701;28;20122;-79
2022/04/19 12:45:37;;;;;;;3.15;1.73;;;19.80;64.40;;;;;;5089554;28;19998;-80
2022/04/19 12:48:07;;;;;;;2.42;1.58;;;19.90;64.70;;;;;;5084411;28;20048;-80
2022/04/19 12:50:34;;;;;;;2.83;1.30;;;19.90;65.00;;;;;;5066848;28;20044;-79
2022/04/19 12:53:02;;;;;;;2.05;1.60;;;19.70;63.80;;;;;;5085029;28;20036;-80
2022/04/19 12:55:29;;;;;;;2.58;1.25;;;19.70;63.90;;;;;;5066068;28;20035;-80
2022/04/19 12:58:08;;;;;;;2.75;1.70;;;19.70;63.70;;;;;;5084471;28;20040;-79
2022/04/19 13:00:35;;;;;;;4.15;1.70;;;19.90;64.10;;;;;;5081256;28;20047;-79
2022/04/19 13:03:01;;;;;;;2.85;1.70;;;19.80;63.50;;;;;;5096549;28;20050;-79
2022/04/19 13:12:16;;;;;;;;;;;19.60;63.40;;;;;;5092665;28;20040;-79
2022/04/19 13:13:44;;;;;;;2.60;1.70;;;19.60;63.70;;;;;;5084712;28;20270;-80
2022/04/19 13:16:10;;;;;;;2.65;1.40;;;19.30;63.80;;;;;;5086419;28;20530;-80
2022/04/19 13:18:36;;;;;;;2.75;1.88;;;19.30;63.90;;;;;;5086350;28;20544;-80
2022/04/19 13:21:02;;;;;;;2.17;1.60;;;19.40;63.80;;;;;;5085820;28;20115;-80
2022/04/19 13:23:27;;;;;;;;;;;19.50;64.20;;;;;;5072739;28;20047;-80
2022/04/19 13:25:54;;;;;;;1.95;1.70;;;19.60;64.80;;;;;;5086825;28;19920;-80
2022/04/19 13:28:22;;;;;;;2.78;1.50;;;19.60;63.90;;;;;;5088678;28;20051;-80
2022/04/19 13:30:48;;;;;;;3.22;1.92;;;19.60;63.00;;;;;;5068403;28;20099;-80
2022/04/19 13:33:14;;;;;;;;;;;19.40;62.70;;;;;;5085333;28;20056;-79
2022/04/19 13:35:40;;;;;;;4.87;2.10;;;19.40;63.70;;;;;;5084421;28;19920;-79
2022/04/19 13:38:23;;;;;;;2.95;1.70;;;19.30;64.20;;;;;;5087295;28;20093;-79
2022/04/19 13:40:50;;;;;;;2.97;2.13;;;19.50;64.00;;;;;;5086026;28;20112;-80